Flight Track Log - Related Links

Times and Time Zones

All times are in EDT time to prevent confusion due to time zone crossing. See the EJA947 flight status page for this flight to view local times or setup timezone preferences in your user account.

Time Position Orientation Groundspeed Altitude Reporting Facility
EDT Latitude Longitude Course Direction KTS MPH feet Rate Location/Type
Mon 02:28:50 PM 39.6000 -104.8500 360° North 196 226 7,900  Level Denver TRACON
Mon 02:29:44 PM 39.6667 -104.8500 360° North 251 289 10,900 2,796 Climbing Denver TRACON
Mon 02:30:33 PM 39.7064 -104.8392 12° North 281 323 12,700 2,486 Climbing Denver Center
Mon 02:31:35 PM 39.7247 -104.6961 80° East 364 419 15,500 2,371 Climbing Denver Center
Mon 02:32:37 PM 39.7028 -104.5456 101° East 401 461 17,600 1,951 Climbing Denver Center
Mon 02:33:38 PM 39.6811 -104.3942 100° East 427 491 19,500 2,000 Climbing Denver Center
Mon 02:34:40 PM 39.6572 -104.2361 101° East 447 514 21,700 2,129 Climbing Denver Center
Mon 02:35:42 PM 39.6306 -104.0567 101° East 471 542 23,900 1,854 Climbing Denver Center
Mon 02:36:43 PM 39.6056 -103.8900 101° East 491 565 25,500 1,512 Climbing Denver Center
Mon 02:37:45 PM 39.5675 -103.7031 105° East 519 597 27,000 1,645 Climbing Denver Center
Mon 02:38:47 PM 39.5181 -103.5133 109° East 546 628 28,900 1,805 Climbing Denver Center
Mon 02:39:48 PM 39.4658 -103.3158 109° East 571 657 30,700 2,244 Climbing Denver Center
Mon 02:40:50 PM 39.4125 -103.1158 109° East 582 670 33,500 2,081 Climbing Denver Center
Mon 02:41:52 PM 39.3508 -102.8853 109° East 578 665 35,000 1,366 Climbing Denver Center
Mon 02:42:53 PM 39.3000 -102.7011 110° East 597 687 36,300 1,512 Climbing Denver Center
Mon 02:43:55 PM 39.2389 -102.4761 109° East 595 685 38,100 1,742 Climbing Denver Center
Mon 02:44:57 PM 39.1869 -102.2878 110° East 585 673 39,900 1,415 Climbing Denver Center
Mon 02:45:58 PM 39.1292 -102.0772 109° East 560 644 41,000 537 Climbing Denver Center
Mon 02:47:00 PM 39.0647 -101.9014 115° Southeast 564 649 41,000  Level Denver Center
Mon 02:48:02 PM 38.9911 -101.7317 119° Southeast 568 654 41,000  Level Denver Center
Mon 02:49:03 PM 38.9178 -101.5611 119° Southeast 570 656 41,000  Level Denver Center
Mon 02:50:05 PM 38.8314 -101.3611 119° Southeast 574 661 41,000  Level Denver Center
Mon 02:51:07 PM 38.7447 -101.1617 119° Southeast 572 658 41,000  Level Denver Center
Mon 02:52:08 PM 38.6700 -100.9908 119° Southeast 572 658 41,000  Level Denver Center
Mon 02:53:10 PM 38.5828 -100.7925 119° Southeast 572 658 41,000  Level Denver Center
Mon 02:54:12 PM 38.5069 -100.6194 119° Southeast 579 666 41,000  Level Denver Center
Mon 02:55:14 PM 38.4306 -100.4492 120° Southeast 577 664 41,000  Level Denver Center
Mon 02:56:15 PM 38.3669 -100.3069 120° Southeast 576 663 41,000  Level Denver Center
Mon 02:56:47 PM 38.3017 -100.1603 120° Southeast 581 669 41,000  Level Kansas City Center
Mon 02:57:47 PM 38.2233 -99.9897 120° Southeast 581 669 41,000  Level Kansas City Center
Mon 02:58:51 PM 38.1333 -99.7914 120° Southeast 581 669 41,000  Level Kansas City Center
Mon 02:59:51 PM 38.0553 -99.6214 120° Southeast 580 667 41,000  Level Kansas City Center
Mon 03:00:54 PM 37.9697 -99.4350 120° Southeast 578 665 41,000  Level Kansas City Center
Mon 03:01:56 PM 37.8900 -99.2589 120° Southeast 579 666 41,000  Level Kansas City Center
Mon 03:02:59 PM 37.8094 -99.0853 120° Southeast 576 663 41,000  Level Kansas City Center
Mon 03:04:00 PM 37.7283 -98.9114 120° Southeast 577 664 41,000  Level Kansas City Center
Mon 03:05:01 PM 37.6456 -98.7344 121° Southeast 585 673 41,000  Level Kansas City Center
Mon 03:06:05 PM 37.5467 -98.5264 121° Southeast 583 671 41,000  Level Kansas City Center
Mon 03:07:05 PM 37.4644 -98.3519 121° Southeast 583 671 41,000  Level Kansas City Center
Mon 03:08:06 PM 37.3808 -98.1792 121° Southeast 583 671 41,000  Level Kansas City Center
Mon 03:09:10 PM 37.2969 -98.0044 121° Southeast 587 676 41,000  Level Kansas City Center
Mon 03:10:11 PM 37.2136 -97.8314 121° Southeast 586 674 41,000  Level Kansas City Center
Mon 03:11:13 PM 37.1125 -97.6239 121° Southeast 585 673 41,000  Level Kansas City Center
Mon 03:12:13 PM 37.0300 -97.4475 120° Southeast 587 676 41,000 -48 Level Kansas City Center
Mon 03:13:17 PM 36.9442 -97.2736 122° Southeast 590 679 40,900 -528 Descending Kansas City Center
Mon 03:14:18 PM 36.8583 -97.0986 121° Southeast 590 679 39,900 -1,180 Descending Kansas City Center
Mon 03:15:19 PM 36.7717 -96.9250 122° Southeast 586 674 38,500 -1,403 Descending Kansas City Center
Mon 03:16:22 PM 36.6836 -96.7489 122° Southeast 595 685 37,000 -1,210 Descending Kansas City Center
Mon 03:17:23 PM 36.5953 -96.5733 122° Southeast 597 687 36,000 -541 Descending Kansas City Center
Mon 03:18:24 PM 36.4872 -96.3581 122° Southeast 610 702 35,900 -480 Descending Kansas City Center
Mon 03:19:28 PM 36.3956 -96.1781 122° Southeast 615 708 35,000 -912 Descending Kansas City Center
Mon 03:20:29 PM 36.3050 -96.0011 122° Southeast 613 705 34,000 -976 Descending Kansas City Center
Mon 03:21:31 PM 36.2156 -95.8261 122° Southeast 609 701 33,000 -488 Descending Kansas City Center
Mon 03:22:32 PM 36.1228 -95.6619 125° Southeast 608 700 33,000 -1,306 Level Kansas City Center
Mon 03:23:35 PM 36.0022 -95.4633 127° Southeast 598 688 30,300 -2,758 Descending Kansas City Center
Mon 03:24:36 PM 35.9072 -95.3047 126° Southeast 588 677 27,300 -3,295 Descending Kansas City Center
Mon 03:25:37 PM 35.8167 -95.1536 126° Southeast 567 652 23,600 -1,302 Descending Kansas City Center
Mon 03:26:22 PM 35.7492 -95.0481 128° Southeast 549 632 25,000 800 Climbing Memphis Center
Mon 03:27:22 PM 35.6747 -94.9186 125° Southeast 504 580 25,000  Level Memphis Center
Mon 03:28:22 PM 35.6019 -94.8025 128° Southeast 466 536 25,000  Level Memphis Center
Mon 03:29:22 PM 35.5406 -94.7097 129° Southeast 403 464 25,000  Level Memphis Center
Mon 03:30:22 PM 35.4758 -94.6503 143° Southeast 333 383 25,000  Level Memphis Center
Mon 03:31:22 PM 35.4108 -94.6011 148° Southeast 302 348 25,000  Level Memphis Center
Mon 03:32:22 PM 35.3539 -94.5575 148° Southeast 269 310 25,000  Level Memphis Center
Mon 03:33:22 PM 35.3139 -94.5097 136° Southeast 249 287 25,000  Level Memphis Center
Mon 03:34:22 PM 35.3283 -94.4494 74° East 165 190 25,000  Level Memphis Center
Mon 03:35:22 PM 35.3072 -94.3922 114° Southeast 165 190 25,000  Level Memphis Center
Mon 03:36:22 PM 35.2942 -94.3408 107° East 165 190 25,000  Level Memphis Center
Mon 03:37:22 PM 35.2792 -94.2892 110° East 165 190 25,000  Level Memphis Center
Mon 03:38:22 PM 35.2661 -94.2378 107° East 165 190 25,000  Level Memphis Center
Mon 03:39:22 PM 35.2661 -94.2378 59° Northeast 165 190 25,000  Level Memphis Center
Mon 03:42:00 PM 35.3333 -94.3667 307° West  Level FlightAware Approximate
Mon 03:49:00 PM 35.3366 -94.3674 307° West  Level Estimated
Mon 03:50:00 PM 35.3333 -94.3667 307° West  Level FlightAware Approximate
Mon 03:51:00 PM 35.3366 -94.3674 307° West  Level Estimated
Mon 03:52:00 PM 35.3333 -94.3667 307° West  Level FlightAware Approximate
Mon 03:53:00 PM 35.3366 -94.3674 307° West  Level Estimated
Mon 03:54:00 PM 35.3333 -94.3667 307° West  Level FlightAware Approximate
Mon 03:55:00 PM 35.3366 -94.3674 307° West  Level Estimated

Login

Don't have an account? Register now (free) for customized features, flight alerts, and more!